createdAt,value
2022-10-29T00:00:52.516Z,101203.81
2022-10-29T00:03:19.841Z,101201.94
2022-10-29T00:06:07.761Z,101194.03
2022-10-29T00:08:37.333Z,101189.47
2022-10-29T00:11:14.473Z,101187.47
2022-10-29T00:13:41.696Z,101193.53
2022-10-29T00:16:13.920Z,101188.13
2022-10-29T00:18:40.768Z,101194.75
2022-10-29T00:21:10.236Z,101197.69
2022-10-29T00:23:37.888Z,101197.19
2022-10-29T00:26:04.897Z,101199.31
2022-10-29T00:28:32.149Z,101205.84
2022-10-29T00:31:04.012Z,101202.34
2022-10-29T00:33:30.676Z,101197.97
2022-10-29T00:36:01.925Z,101207.78
2022-10-29T00:38:28.429Z,101200.44
2022-10-29T00:40:55.331Z,101195.69
2022-10-29T00:43:24.499Z,101191.72
2022-10-29T00:46:07.021Z,101201.41
2022-10-29T00:48:36.983Z,101197.69
2022-10-29T00:51:06.938Z,101204.69
2022-10-29T00:53:38.133Z,101198.81
2022-10-29T00:56:05.544Z,101207.81
2022-10-29T00:58:32.331Z,101200.44
2022-10-29T01:00:59.261Z,101203.06
2022-10-29T01:03:25.767Z,101196.00
2022-10-29T01:05:53.898Z,101201.88
2022-10-29T01:08:20.712Z,101202.22
2022-10-29T01:11:03.393Z,101209.03
2022-10-29T01:13:43.755Z,101208.72
2022-10-29T01:16:47.346Z,101210.00
2022-10-29T01:19:13.946Z,101204.44
2022-10-29T01:21:44.186Z,101195.81
2022-10-29T01:24:41.677Z,101178.50
2022-10-29T01:27:20.226Z,101185.44
2022-10-29T01:30:05.672Z,101186.03
2022-10-29T01:32:54.203Z,101180.50
2022-10-29T01:35:47.489Z,101180.25
2022-10-29T01:38:36.378Z,101181.75
2022-10-29T01:41:19.702Z,101173.31
2022-10-29T01:43:58.566Z,101173.81
2022-10-29T01:46:35.469Z,101178.66
2022-10-29T01:49:07.225Z,101186.16
2022-10-29T01:51:36.499Z,101175.50
2022-10-29T01:54:08.474Z,101174.66
2022-10-29T01:56:34.922Z,101178.91
2022-10-29T01:59:04.698Z,101164.31
2022-10-29T02:01:40.422Z,101166.09
2022-10-29T02:04:21.824Z,101172.66
2022-10-29T02:06:54.024Z,101173.91
2022-10-29T02:09:51.492Z,101184.94
2022-10-29T02:12:26.695Z,101176.34
2022-10-29T02:15:03.148Z,101174.63
2022-10-29T02:17:34.319Z,101170.41
2022-10-29T02:20:09.623Z,101183.44
2022-10-29T02:22:36.159Z,101174.72
2022-10-29T02:25:03.690Z,101176.19
2022-10-29T02:27:30.199Z,101164.03
2022-10-29T02:29:56.717Z,101170.91
2022-10-29T02:32:23.218Z,101175.38
2022-10-29T02:34:49.741Z,101177.09
2022-10-29T02:37:16.257Z,101167.16
2022-10-29T02:39:42.762Z,101178.16
2022-10-29T02:42:09.390Z,101169.91
2022-10-29T02:44:35.900Z,101166.75
2022-10-29T02:47:02.403Z,101164.97
2022-10-29T02:49:29.040Z,101163.22
2022-10-29T02:51:55.685Z,101170.97
2022-10-29T02:54:22.202Z,101169.06
2022-10-29T02:56:48.660Z,101172.09
2022-10-29T02:59:15.163Z,101174.34
2022-10-29T03:01:41.711Z,101169.72
2022-10-29T03:04:08.292Z,101164.88
2022-10-29T03:06:34.815Z,101170.16
2022-10-29T03:09:01.307Z,101175.81
2022-10-29T03:11:27.811Z,101172.22
2022-10-29T03:13:54.309Z,101174.31
2022-10-29T03:16:20.848Z,101166.50
2022-10-29T03:18:47.405Z,101162.88
2022-10-29T03:21:13.896Z,101156.69
2022-10-29T03:23:40.406Z,101162.13
2022-10-29T03:26:06.937Z,101171.28
2022-10-29T03:28:33.490Z,101176.25
2022-10-29T03:31:00.097Z,101170.31
2022-10-29T03:33:26.632Z,101172.59
2022-10-29T03:36:00.738Z,101162.41
2022-10-29T03:38:27.561Z,101166.97
2022-10-29T03:40:54.646Z,101164.44
2022-10-29T03:43:21.356Z,101166.97
2022-10-29T03:45:57.814Z,101171.06
2022-10-29T03:48:25.834Z,101176.31
2022-10-29T03:51:05.827Z,101178.38
2022-10-29T03:53:33.592Z,101179.91
2022-10-29T03:56:00.133Z,101189.72
2022-10-29T03:58:26.847Z,101188.59
2022-10-29T04:01:00.905Z,101190.84
2022-10-29T04:03:30.894Z,101189.94
2022-10-29T04:05:58.586Z,101179.34
2022-10-29T04:08:25.952Z,101172.50
2022-10-29T04:10:52.700Z,101173.72
2022-10-29T04:13:19.660Z,101180.47
2022-10-29T04:15:46.989Z,101177.66
2022-10-29T04:18:13.830Z,101181.31
2022-10-29T04:22:31.611Z,101175.53
2022-10-29T04:29:01.243Z,101176.88
2022-10-29T04:31:27.742Z,101185.69
2022-10-29T04:33:54.222Z,101186.56
2022-10-29T04:36:20.754Z,101173.44
2022-10-29T04:38:47.251Z,101166.44
2022-10-29T04:41:13.784Z,101166.72
2022-10-29T04:43:40.363Z,101143.16
2022-10-29T04:46:06.870Z,101148.63
2022-10-29T04:48:33.482Z,101149.81
2022-10-29T04:51:00.055Z,101145.84
2022-10-29T04:53:26.728Z,101140.94
2022-10-29T04:56:02.100Z,101146.22
2022-10-29T04:58:28.909Z,101144.38
2022-10-29T05:01:01.649Z,101152.53
2022-10-29T05:03:28.402Z,101152.38
2022-10-29T05:05:54.891Z,101151.59
2022-10-29T05:08:21.620Z,101157.63
2022-10-29T05:10:48.278Z,101161.66
2022-10-29T05:13:15.174Z,101161.13
2022-10-29T05:15:41.932Z,101166.19
2022-10-29T05:18:09.663Z,101167.38
2022-10-29T05:20:36.315Z,101159.59
2022-10-29T05:23:05.821Z,101156.84
2022-10-29T05:25:35.428Z,101151.38
2022-10-29T05:28:13.511Z,101142.97
2022-10-29T05:30:40.354Z,101152.25
2022-10-29T05:33:11.345Z,101156.97
2022-10-29T05:35:38.228Z,101157.53
2022-10-29T05:38:05.492Z,101158.41
2022-10-29T05:40:32.418Z,101156.38
2022-10-29T05:42:59.508Z,101148.97
2022-10-29T05:45:26.152Z,101159.44
2022-10-29T05:48:01.273Z,101161.78
2022-10-29T05:50:29.409Z,101152.59
2022-10-29T05:53:05.304Z,101157.13
2022-10-29T05:55:33.586Z,101157.72
2022-10-29T05:58:02.098Z,101153.22
2022-10-29T06:00:31.628Z,101155.31
2022-10-29T06:02:58.505Z,101152.16
2022-10-29T06:05:25.872Z,101157.34
2022-10-29T06:07:57.100Z,101155.88
2022-10-29T06:10:25.192Z,101161.91
2022-10-29T06:12:51.945Z,101158.88
2022-10-29T06:15:19.057Z,101162.25
2022-10-29T06:17:46.514Z,101156.31
2022-10-29T06:20:14.817Z,101160.56
2022-10-29T06:22:41.444Z,101159.25
2022-10-29T06:25:08.650Z,101160.25
2022-10-29T06:27:35.592Z,101152.06
2022-10-29T06:30:02.355Z,101156.38
2022-10-29T06:32:29.021Z,101159.16
2022-10-29T06:34:55.513Z,101154.97
2022-10-29T06:37:21.958Z,101156.31
2022-10-29T06:39:48.427Z,101155.63
2022-10-29T06:42:14.951Z,101162.31
2022-10-29T06:44:41.493Z,101167.91
2022-10-29T06:47:08.011Z,101166.56
2022-10-29T06:49:34.464Z,101169.16
2022-10-29T06:52:01.103Z,101168.75
2022-10-29T06:54:27.583Z,101170.25
2022-10-29T06:56:54.098Z,101169.19
2022-10-29T06:59:20.622Z,101167.66
2022-10-29T07:01:47.129Z,101174.34
2022-10-29T07:04:13.772Z,101174.09
2022-10-29T07:06:40.245Z,101169.66
2022-10-29T07:09:06.860Z,101176.50
2022-10-29T07:11:33.295Z,101174.38
2022-10-29T07:14:00.093Z,101186.59
2022-10-29T07:16:26.612Z,101176.72
2022-10-29T07:18:53.748Z,101183.13
2022-10-29T07:21:20.214Z,101181.13
2022-10-29T07:23:46.676Z,101177.72
2022-10-29T07:26:13.180Z,101178.75
2022-10-29T07:28:39.697Z,101188.38
2022-10-29T07:31:07.650Z,101179.13
2022-10-29T07:33:34.423Z,101179.22
2022-10-29T07:36:00.892Z,101177.94
2022-10-29T07:38:27.610Z,101178.97
2022-10-29T07:40:54.375Z,101181.50
2022-10-29T07:43:22.701Z,101182.59
2022-10-29T07:45:50.740Z,101186.41
2022-10-29T07:48:18.871Z,101189.03
2022-10-29T07:50:45.718Z,101185.75
2022-10-29T07:53:12.434Z,101184.22
2022-10-29T07:55:38.957Z,101185.81
2022-10-29T07:58:07.891Z,101188.84
2022-10-29T08:00:36.879Z,101184.78
2022-10-29T08:03:04.159Z,101189.94
2022-10-29T08:05:31.223Z,101188.91
2022-10-29T08:07:58.349Z,101187.19
2022-10-29T08:10:26.195Z,101183.53
2022-10-29T08:12:54.573Z,101182.72
2022-10-29T08:15:22.400Z,101187.22
2022-10-29T08:17:50.269Z,101188.78
2022-10-29T08:20:17.835Z,101190.69
2022-10-29T08:22:44.474Z,101191.91
2022-10-29T08:25:12.204Z,101192.28
2022-10-29T08:27:39.137Z,101195.47
2022-10-29T08:30:12.260Z,101197.78
2022-10-29T08:32:46.612Z,101193.53
2022-10-29T08:35:13.682Z,101191.47
2022-10-29T08:37:46.337Z,101186.25
2022-10-29T08:40:29.266Z,101186.00
2022-10-29T08:43:17.331Z,101189.00
2022-10-29T08:45:50.932Z,101188.84
2022-10-29T08:48:48.544Z,101189.13
2022-10-29T08:51:27.906Z,101190.94
2022-10-29T08:54:25.097Z,101190.81
2022-10-29T08:56:50.451Z,101190.06
2022-10-29T08:59:21.092Z,101191.78
2022-10-29T09:01:48.475Z,101192.38
2022-10-29T09:04:34.528Z,101193.50
2022-10-29T09:07:29.040Z,101192.72
2022-10-29T09:10:16.634Z,101185.00
2022-10-29T09:13:06.699Z,101186.13
2022-10-29T09:16:01.579Z,101183.97
2022-10-29T09:19:00.653Z,101192.03
2022-10-29T09:21:53.207Z,101192.63
2022-10-29T09:24:30.471Z,101194.13
2022-10-29T09:27:09.811Z,101183.75
2022-10-29T09:30:11.898Z,101184.91
2022-10-29T09:32:53.725Z,101186.81
2022-10-29T09:35:22.328Z,101179.16
2022-10-29T09:37:54.755Z,101173.00
2022-10-29T09:40:29.823Z,101172.63
2022-10-29T09:42:59.023Z,101178.81
2022-10-29T09:45:40.028Z,101173.44
2022-10-29T09:48:23.335Z,101176.53
2022-10-29T09:51:10.763Z,101175.72
2022-10-29T09:53:37.487Z,101173.00
2022-10-29T09:56:07.261Z,101174.28
2022-10-29T09:58:38.746Z,101164.53
2022-10-29T10:01:08.316Z,101171.75
2022-10-29T10:03:45.617Z,101166.03
2022-10-29T10:06:14.647Z,101162.81
2022-10-29T10:09:05.193Z,101163.53
2022-10-29T10:11:39.031Z,101154.13
2022-10-29T10:14:19.751Z,101160.91
2022-10-29T10:16:46.480Z,101154.72
2022-10-29T10:19:24.550Z,101161.47
2022-10-29T10:22:05.371Z,101149.13
2022-10-29T10:24:33.613Z,101145.88
2022-10-29T10:27:00.795Z,101138.91
2022-10-29T10:29:28.371Z,101146.53
2022-10-29T10:31:57.935Z,101156.81
2022-10-29T10:34:37.132Z,101148.81
2022-10-29T10:37:05.827Z,101146.84
2022-10-29T10:39:36.843Z,101149.81
2022-10-29T10:42:22.539Z,101135.38
2022-10-29T10:44:53.080Z,101137.19
2022-10-29T10:47:23.969Z,101133.16
2022-10-29T10:49:50.920Z,101136.31
2022-10-29T10:52:20.724Z,101123.81
2022-10-29T10:54:59.655Z,101128.16
2022-10-29T10:57:34.083Z,101129.69
2022-10-29T11:00:20.309Z,101118.25
2022-10-29T11:03:15.793Z,101125.38
2022-10-29T11:06:03.127Z,101117.00
2022-10-29T11:08:46.171Z,101116.19
2022-10-29T11:11:21.660Z,101108.41
2022-10-29T11:13:50.263Z,101111.00
2022-10-29T11:16:27.870Z,101104.75
2022-10-29T11:19:04.741Z,101111.84
2022-10-29T11:22:10.270Z,101101.97
2022-10-29T11:25:14.153Z,101091.03
2022-10-29T11:27:56.046Z,101086.19
2022-10-29T11:30:23.332Z,101072.88
2022-10-29T11:33:26.923Z,101071.81
2022-10-29T11:36:02.004Z,101072.91
2022-10-29T11:38:39.580Z,101071.13
2022-10-29T11:41:18.305Z,101064.44
2022-10-29T11:43:47.054Z,101064.03
2022-10-29T11:46:30.088Z,101069.63
2022-10-29T11:49:22.806Z,101073.47
2022-10-29T11:51:56.589Z,101056.63
2022-10-29T11:54:41.340Z,101063.44
2022-10-29T11:57:32.255Z,101047.69
2022-10-29T12:00:07.476Z,101050.22
2022-10-29T12:02:59.361Z,101054.31
2022-10-29T12:05:58.460Z,101053.22
2022-10-29T12:08:46.753Z,101051.91
2022-10-29T12:11:30.453Z,101055.75
2022-10-29T12:14:02.690Z,101047.41
2022-10-29T12:16:33.279Z,101045.63
2022-10-29T12:19:29.970Z,101047.81
2022-10-29T12:22:40.479Z,101035.25
2022-10-29T12:25:31.533Z,101040.44
2022-10-29T12:28:46.824Z,101029.38
2022-10-29T12:31:28.538Z,101032.59
2022-10-29T12:34:01.848Z,101024.22
2022-10-29T12:36:57.606Z,101028.94
2022-10-29T12:39:35.370Z,101023.81
2022-10-29T12:42:07.836Z,101022.66
2022-10-29T12:44:45.247Z,101017.38
2022-10-29T12:47:23.018Z,101008.47
2022-10-29T12:50:13.272Z,101005.38
2022-10-29T12:52:53.422Z,101009.38
2022-10-29T12:55:20.465Z,101007.22
2022-10-29T12:57:47.070Z,101006.00
2022-10-29T13:00:22.907Z,101007.31
2022-10-29T13:02:53.916Z,101003.56
2022-10-29T13:05:40.621Z,101004.84
2022-10-29T13:08:07.085Z,100997.28
2022-10-29T13:10:33.500Z,100994.25
2022-10-29T13:13:15.321Z,100996.31
2022-10-29T13:15:52.867Z,100990.13
2022-10-29T13:18:31.451Z,100990.81
2022-10-29T13:20:57.966Z,101000.03
2022-10-29T13:23:24.402Z,101003.56
2022-10-29T13:25:55.682Z,100994.91
2022-10-29T13:28:22.219Z,100993.25
2022-10-29T13:30:50.869Z,100993.59
2022-10-29T13:33:23.310Z,100994.09
2022-10-29T13:36:08.918Z,100983.97
2022-10-29T13:39:04.860Z,100984.59
2022-10-29T13:41:40.182Z,100987.31
2022-10-29T13:44:16.291Z,100974.66
2022-10-29T13:47:03.403Z,100969.16
2022-10-29T13:49:47.587Z,100974.41
2022-10-29T13:52:17.649Z,100966.72
2022-10-29T13:54:49.462Z,100974.13
2022-10-29T13:57:22.548Z,100973.41
2022-10-29T14:00:04.472Z,100976.13
2022-10-29T14:02:51.482Z,100962.06
2022-10-29T14:05:22.853Z,100974.97
2022-10-29T14:08:07.173Z,100964.25
2022-10-29T14:10:39.847Z,100958.84
2022-10-29T14:13:45.152Z,100961.97
2022-10-29T14:16:15.257Z,100964.81
2022-10-29T14:18:46.628Z,100974.38
2022-10-29T14:21:37.510Z,100971.84
2022-10-29T14:24:06.869Z,100966.25
2022-10-29T14:26:36.415Z,100959.50
2022-10-29T14:29:21.041Z,100960.63
2022-10-29T14:32:15.104Z,100957.88
2022-10-29T14:34:42.628Z,100952.63
2022-10-29T14:37:40.069Z,100952.50
2022-10-29T14:40:17.107Z,100947.78
2022-10-29T14:42:47.976Z,100954.94
2022-10-29T14:45:28.237Z,100959.28
2022-10-29T14:48:04.406Z,100964.41
2022-10-29T14:50:31.572Z,100959.59
2022-10-29T14:53:02.170Z,100958.72
2022-10-29T14:55:35.361Z,100955.31
2022-10-29T14:58:13.990Z,100960.09
2022-10-29T15:00:54.115Z,100960.16
2022-10-29T15:03:23.467Z,100960.03
2022-10-29T15:05:50.504Z,100961.72
2022-10-29T15:08:29.407Z,100961.81
2022-10-29T15:10:58.778Z,100950.41
2022-10-29T15:13:28.367Z,100957.41
2022-10-29T15:15:59.472Z,100951.25
2022-10-29T15:18:26.701Z,100947.09
2022-10-29T15:20:54.920Z,100949.25
2022-10-29T15:23:35.312Z,100949.78
2022-10-29T15:26:05.346Z,100949.72
2022-10-29T15:28:38.965Z,100945.91
2022-10-29T15:31:06.084Z,100942.97
2022-10-29T15:33:35.875Z,100946.47
2022-10-29T15:36:04.170Z,100950.63
2022-10-29T15:38:30.738Z,100950.03
2022-10-29T15:41:12.676Z,100958.56
2022-10-29T15:43:51.310Z,100954.16
2022-10-29T15:46:26.713Z,100956.38
2022-10-29T15:48:53.698Z,100956.28
2022-10-29T15:51:26.641Z,100955.31
2022-10-29T15:53:56.102Z,100947.81
2022-10-29T15:56:23.387Z,100959.34
2022-10-29T15:58:50.121Z,100942.94
2022-10-29T16:01:17.300Z,100939.53
2022-10-29T16:03:44.007Z,100935.84
2022-10-29T16:06:11.204Z,100935.94
2022-10-29T16:08:47.186Z,100932.59
2022-10-29T16:11:16.705Z,100927.19
2022-10-29T16:13:43.198Z,100934.91
2022-10-29T16:16:13.524Z,100937.97
2022-10-29T16:18:39.949Z,100941.56
2022-10-29T16:21:06.699Z,100931.50
2022-10-29T16:23:36.502Z,100942.53
2022-10-29T16:26:02.989Z,100935.03
2022-10-29T16:28:29.655Z,100935.06
2022-10-29T16:30:58.969Z,100929.97
2022-10-29T16:33:26.381Z,100938.31
2022-10-29T16:35:52.896Z,100934.44
2022-10-29T16:38:19.460Z,100936.50
2022-10-29T16:40:46.088Z,100931.81
2022-10-29T16:43:12.551Z,100938.94
2022-10-29T16:45:39.168Z,100930.63
2022-10-29T16:48:08.147Z,100932.16
2022-10-29T16:50:34.935Z,100931.44
2022-10-29T16:53:11.905Z,100930.91
2022-10-29T16:55:40.484Z,100936.13
2022-10-29T16:58:11.758Z,100928.41
2022-10-29T17:00:38.404Z,100931.97
2022-10-29T17:03:08.424Z,100928.91
2022-10-29T17:05:43.010Z,100919.00
2022-10-29T17:08:10.400Z,100916.47
2022-10-29T17:10:37.317Z,100920.97
2022-10-29T17:13:04.731Z,100921.94
2022-10-29T17:15:31.313Z,100922.69
2022-10-29T17:17:58.353Z,100928.19
2022-10-29T17:20:25.124Z,100929.03
2022-10-29T17:22:52.781Z,100930.88
2022-10-29T17:25:19.365Z,100925.38
2022-10-29T17:27:45.860Z,100924.69
2022-10-29T17:30:12.552Z,100927.56
2022-10-29T17:32:39.170Z,100931.28
2022-10-29T17:35:06.055Z,100930.38
2022-10-29T17:37:33.212Z,100924.25
2022-10-29T17:40:03.156Z,100928.69
2022-10-29T17:42:33.685Z,100926.69
2022-10-29T17:45:00.236Z,100938.22
2022-10-29T17:47:26.853Z,100938.19
2022-10-29T17:49:53.491Z,100935.91
2022-10-29T17:52:20.101Z,100936.31
2022-10-29T17:54:46.690Z,100944.47
2022-10-29T17:57:13.194Z,100941.06
2022-10-29T17:59:39.684Z,100938.75
2022-10-29T18:02:06.486Z,100935.69
2022-10-29T18:04:33.066Z,100936.06
2022-10-29T18:06:59.721Z,100941.06
2022-10-29T18:09:26.319Z,100945.66
2022-10-29T18:11:52.844Z,100946.41
2022-10-29T18:14:19.566Z,100945.66
2022-10-29T18:16:46.450Z,100947.16
2022-10-29T18:19:12.942Z,100951.38
2022-10-29T18:21:39.602Z,100949.84
2022-10-29T18:24:06.732Z,100944.13
2022-10-29T18:26:35.523Z,100945.25
2022-10-29T18:29:10.109Z,100944.50
2022-10-29T18:31:37.551Z,100939.53
2022-10-29T18:34:06.317Z,100942.19
2022-10-29T18:36:35.498Z,100936.44
2022-10-29T18:39:02.423Z,100934.47
2022-10-29T18:41:28.951Z,100933.72
2022-10-29T18:43:55.643Z,100939.91
2022-10-29T18:46:22.575Z,100937.63
2022-10-29T18:48:50.120Z,100942.19
2022-10-29T18:51:18.200Z,100949.88
2022-10-29T18:53:44.938Z,100935.63
2022-10-29T18:56:19.280Z,100937.44
2022-10-29T18:58:46.286Z,100934.44
2022-10-29T19:01:16.166Z,100927.94
2022-10-29T19:03:43.780Z,100928.31
2022-10-29T19:06:12.867Z,100937.06
2022-10-29T19:08:43.159Z,100938.22
2022-10-29T19:11:13.604Z,100943.50
2022-10-29T19:13:40.507Z,100934.69
2022-10-29T19:16:09.666Z,100932.09
2022-10-29T19:18:37.443Z,100938.56
2022-10-29T19:21:06.604Z,100943.97
2022-10-29T19:23:33.574Z,100934.00
2022-10-29T19:26:08.994Z,100928.63
2022-10-29T19:28:36.285Z,100931.25
2022-10-29T19:31:15.833Z,100933.09
2022-10-29T19:33:46.466Z,100934.22
2022-10-29T19:36:13.033Z,100929.59
2022-10-29T19:38:39.549Z,100922.78
2022-10-29T19:41:06.268Z,100924.31
2022-10-29T19:43:32.910Z,100928.53
2022-10-29T19:45:59.477Z,100925.84
2022-10-29T19:48:26.339Z,100931.88
2022-10-29T19:50:55.085Z,100931.97
2022-10-29T19:53:23.095Z,100928.94
2022-10-29T19:55:50.400Z,100935.78
2022-10-29T19:58:21.468Z,100929.91
2022-10-29T20:00:48.428Z,100931.47
2022-10-29T20:03:16.872Z,100920.72
2022-10-29T20:05:44.012Z,100932.59
2022-10-29T20:08:14.755Z,100928.72
2022-10-29T20:10:42.901Z,100931.41
2022-10-29T20:13:09.759Z,100928.66
2022-10-29T20:15:38.963Z,100935.19
2022-10-29T20:18:05.810Z,100934.94
2022-10-29T20:20:32.318Z,100935.59
2022-10-29T20:23:00.043Z,100931.38
2022-10-29T20:25:27.438Z,100929.13
2022-10-29T20:27:54.077Z,100936.38
2022-10-29T20:30:21.115Z,100930.31
2022-10-29T20:32:48.978Z,100931.81
2022-10-29T20:35:16.638Z,100931.88
2022-10-29T20:37:43.207Z,100935.38
2022-10-29T20:40:10.458Z,100942.69
2022-10-29T20:42:37.158Z,100936.94
2022-10-29T20:45:04.034Z,100933.19
2022-10-29T20:47:30.590Z,100925.31
2022-10-29T20:49:57.106Z,100935.75
2022-10-29T20:52:23.869Z,100929.34
2022-10-29T20:54:50.509Z,100932.88
2022-10-29T20:57:17.077Z,100929.31
2022-10-29T20:59:43.658Z,100932.28
2022-10-29T21:02:11.835Z,100939.44
2022-10-29T21:04:38.972Z,100929.88
2022-10-29T21:07:05.624Z,100939.41
2022-10-29T21:09:32.093Z,100940.13
2022-10-29T21:11:58.647Z,100940.47
2022-10-29T21:14:27.387Z,100935.47
2022-10-29T21:16:53.919Z,100933.47
2022-10-29T21:19:20.572Z,100934.56
2022-10-29T21:21:47.075Z,100927.28
2022-10-29T21:24:13.607Z,100929.19
2022-10-29T21:26:40.209Z,100931.97
2022-10-29T21:29:06.765Z,100930.38
2022-10-29T21:31:33.333Z,100935.03
2022-10-29T21:34:00.012Z,100928.88
2022-10-29T21:36:26.575Z,100929.72
2022-10-29T21:38:53.175Z,100931.44
2022-10-29T21:41:19.766Z,100934.06
2022-10-29T21:43:46.351Z,100922.41
2022-10-29T21:46:12.932Z,100927.22
2022-10-29T21:48:39.509Z,100930.88
2022-10-29T21:51:07.909Z,100925.97
2022-10-29T21:53:34.927Z,100917.16
2022-10-29T21:56:03.672Z,100923.41
2022-10-29T21:58:30.818Z,100923.03
2022-10-29T22:01:17.939Z,100926.13
2022-10-29T22:03:46.552Z,100927.50
2022-10-29T22:06:23.940Z,100918.28
2022-10-29T22:08:56.044Z,100916.88
2022-10-29T22:11:23.575Z,100920.06
2022-10-29T22:13:50.304Z,100911.13
2022-10-29T22:16:16.906Z,100915.72
2022-10-29T22:18:43.772Z,100916.53
2022-10-29T22:21:15.748Z,100916.75
2022-10-29T22:23:44.057Z,100921.56
2022-10-29T22:26:10.942Z,100918.50
2022-10-29T22:28:37.449Z,100919.34
2022-10-29T22:31:04.846Z,100915.53
2022-10-29T22:33:31.570Z,100917.59
2022-10-29T22:36:08.462Z,100911.94
2022-10-29T22:38:35.472Z,100912.69
2022-10-29T22:41:10.424Z,100911.22
2022-10-29T22:43:37.629Z,100905.06
2022-10-29T22:46:05.781Z,100904.63
2022-10-29T22:48:32.894Z,100902.72
2022-10-29T22:51:05.046Z,100902.31
2022-10-29T22:53:32.544Z,100897.41
2022-10-29T22:55:59.669Z,100901.28
2022-10-29T22:58:26.343Z,100900.84
2022-10-29T23:01:07.780Z,100906.25
2022-10-29T23:03:34.550Z,100887.72
2022-10-29T23:06:03.520Z,100897.75
2022-10-29T23:08:31.103Z,100894.63
2022-10-29T23:10:59.077Z,100896.22
2022-10-29T23:13:25.593Z,100903.28
2022-10-29T23:15:52.990Z,100907.84
2022-10-29T23:18:19.712Z,100903.38
2022-10-29T23:20:46.383Z,100905.94
2022-10-29T23:23:13.610Z,100921.56
2022-10-29T23:25:44.181Z,100914.28
2022-10-29T23:28:10.725Z,100919.16
2022-10-29T23:30:37.317Z,100917.63
2022-10-29T23:33:03.932Z,100919.13
2022-10-29T23:35:30.459Z,100912.25
2022-10-29T23:37:57.203Z,100915.34
2022-10-29T23:40:23.901Z,100913.22
2022-10-29T23:42:50.408Z,100916.72
2022-10-29T23:45:17.130Z,100912.78
2022-10-29T23:47:43.661Z,100911.50
2022-10-29T23:50:10.405Z,100905.31
2022-10-29T23:52:36.897Z,100915.34
2022-10-29T23:55:03.505Z,100905.44
2022-10-29T23:57:29.997Z,100898.50
2022-10-29T23:59:56.494Z,100906.72
